Time;durP1;ratioP1;P1;durP2;ratioP2;P2;SDS_P1;SDS_P2;PMS_P1;PMS_P2;Temp;Humidity;BMP_temperature;BMP_pressure;BME280_temperature;BME280_humidity;BME280_pressure;Samples;Min_cycle;Max_cycle;Signal;HPM_P1;HPM_P2
2023/04/07 00:02:01;;;;;;;18.73;8.65;;;;;;;-148.88;100.00;76388.66;5053810;28;20127;-87
2023/04/07 00:04:26;;;;;;;17.83;8.25;;;;;;;-148.88;100.00;76392.72;5055005;28;20390;-90
2023/04/07 00:06:52;;;;;;;15.10;8.10;;;;;;;-148.88;100.00;76388.66;5053890;28;20035;-88
2023/04/07 00:09:17;;;;;;;14.75;7.00;;;;;;;-148.88;100.00;76386.63;5055354;28;20103;-88
2023/04/07 00:11:42;;;;;;;15.07;7.20;;;;;;;-148.88;100.00;76392.72;5054114;28;20128;-88
2023/04/07 00:14:08;;;;;;;14.85;7.15;;;;;;;-148.88;100.00;76390.69;5053495;28;20067;-88
2023/04/07 00:16:33;;;;;;;13.52;7.72;;;;;;;-148.88;100.00;76398.81;5053777;28;20094;-88
2023/04/07 00:18:58;;;;;;;17.08;8.50;;;;;;;-148.88;100.00;76406.94;5055265;28;20374;-87
2023/04/07 00:21:23;;;;;;;18.00;8.45;;;;;;;-148.88;100.00;76402.88;5053520;28;20029;-88
2023/04/07 00:23:49;;;;;;;14.40;6.82;;;;;;;-148.88;100.00;76398.81;5054752;28;20025;-88
2023/04/07 00:26:15;;;;;;;15.52;7.40;;;;;;;-148.88;100.00;76404.91;5053423;28;20033;-88
2023/04/07 00:28:40;;;;;;;10.75;6.07;;;;;;;-148.88;100.00;76406.94;5054097;28;20542;-88
2023/04/07 00:31:05;;;;;;;14.77;7.32;;;;;;;-148.88;100.00;76415.06;5053647;28;20512;-89
2023/04/07 00:33:30;;;;;;;13.15;6.57;;;;;;;-148.88;100.00;76417.09;5053742;28;20032;-88
2023/04/07 00:35:57;;;;;;;13.80;7.03;;;;;;;-148.88;100.00;76419.16;5054786;28;20033;-89
2023/04/07 00:38:22;;;;;;;13.77;6.95;;;;;;;-148.88;100.00;76415.06;5053321;28;20021;-87
2023/04/07 00:40:48;;;;;;;14.50;6.88;;;;;;;-148.88;100.00;76423.19;5053397;28;20036;-88
2023/04/07 00:43:13;;;;;;;17.50;7.53;;;;;;;-148.88;100.00;76425.25;5053259;28;20028;-88
2023/04/07 00:45:38;;;;;;;14.07;6.95;;;;;;;-148.88;100.00;76419.16;5053406;28;20044;-88
2023/04/07 00:48:04;;;;;;;13.70;7.22;;;;;;;-148.88;100.00;76427.28;5053143;28;20031;-88
2023/04/07 00:50:30;;;;;;;14.65;7.05;;;;;;;-148.88;100.00;76423.19;5053081;28;20028;-87
2023/04/07 00:52:55;;;;;;;13.82;7.25;;;;;;;-148.88;100.00;76423.19;5052949;28;20021;-88
2023/04/07 00:55:22;;;;;;;12.82;7.28;;;;;;;-148.88;100.00;76429.31;5053886;28;20502;-87
2023/04/07 00:57:47;;;;;;;12.75;6.93;;;;;;;-148.88;100.00;76431.34;5052770;28;20359;-88
2023/04/07 01:00:14;;;;;;;15.43;7.03;;;;;;;-148.88;100.00;76427.28;5052975;28;20032;-87
2023/04/07 01:02:51;;;;;;;13.70;7.35;;;;;;;-148.88;100.00;76431.34;5052793;28;20025;-88
2023/04/07 01:05:24;;;;;;;12.52;6.63;;;;;;;-148.88;100.00;76427.28;5052763;28;20394;-87
2023/04/07 01:07:55;;;;;;;;;;;;;;;-148.88;100.00;76423.19;5054584;28;20068;-89
2023/04/07 01:10:32;;;;;;;14.70;7.18;;;;;;;-148.88;100.00;76415.06;5053857;28;19954;-86
2023/04/07 01:13:07;;;;;;;14.43;7.15;;;;;;;-148.88;100.00;76419.16;5052520;28;20071;-88
2023/04/07 01:15:34;;;;;;;14.18;6.72;;;;;;;-148.88;100.00;76419.16;5052668;28;20037;-87
2023/04/07 01:18:11;;;;;;;10.02;5.68;;;;;;;-148.88;100.00;76411.00;5053331;28;20112;-88
2023/04/07 01:20:38;;;;;;;15.27;6.35;;;;;;;-148.88;100.00;76411.00;5052605;28;20025;-88
2023/04/07 01:23:06;;;;;;;11.02;6.13;;;;;;;-148.88;100.00;76411.00;5053693;28;20425;-87
2023/04/07 01:26:17;;;;;;;13.30;6.20;;;;;;;-148.88;100.00;76417.09;5052431;28;20025;-88
2023/04/07 01:28:42;;;;;;;12.75;6.32;;;;;;;-148.88;100.00;76411.00;5052524;28;20054;-87
2023/04/07 01:31:09;;;;;;;11.53;5.67;;;;;;;-148.88;100.00;76411.00;5052330;28;20029;-87
2023/04/07 01:33:36;;;;;;;10.27;5.38;;;;;;;-148.88;100.00;76411.00;5052764;28;20273;-88
2023/04/07 01:36:02;;;;;;;11.88;5.88;;;;;;;-148.88;100.00;76404.91;5052137;28;20064;-88
2023/04/07 01:38:28;;;;;;;11.15;5.88;;;;;;;-148.88;100.00;76400.84;5053312;28;20110;-88
2023/04/07 01:40:56;;;;;;;10.63;5.15;;;;;;;-148.88;100.00;76406.94;5052078;28;20037;-88
2023/04/07 01:43:23;;;;;;;10.98;5.70;;;;;;;-148.88;100.00;76402.88;5052952;28;20471;-88
2023/04/07 01:45:49;;;;;;;10.85;6.07;;;;;;;-148.88;100.00;76404.91;5053448;28;20387;-88
2023/04/07 01:48:16;;;;;;;10.50;5.63;;;;;;;-148.88;100.00;76404.91;5053528;28;20021;-88
2023/04/07 01:50:43;;;;;;;11.15;5.55;;;;;;;-148.88;100.00;76406.94;5052208;28;20352;-88
2023/04/07 01:53:10;;;;;;;14.02;6.90;;;;;;;-148.88;100.00;76402.88;5051840;28;20028;-88
2023/04/07 01:55:36;;;;;;;8.75;5.32;;;;;;;-148.88;100.00;76400.84;5051998;28;20033;-88
2023/04/07 01:58:05;;;;;;;12.27;5.65;;;;;;;-148.88;100.00;76404.91;5051816;28;20501;-88
2023/04/07 02:00:31;;;;;;;10.02;5.90;;;;;;;-148.88;100.00;76406.94;5051901;28;20028;-88
2023/04/07 02:03:00;;;;;;;9.98;5.40;;;;;;;-148.88;100.00;76398.81;5051951;28;20025;-89
2023/04/07 02:05:28;;;;;;;12.75;6.03;;;;;;;-148.88;100.00;76400.84;5051825;28;20029;-88
2023/04/07 02:08:06;;;;;;;11.60;6.47;;;;;;;-148.88;100.00;76402.88;5051843;28;20102;-88
2023/04/07 02:10:37;;;;;;;11.20;5.43;;;;;;;-148.88;100.00;76411.00;5052681;28;20119;-89
2023/04/07 02:13:07;;;;;;;10.50;5.78;;;;;;;-148.88;100.00;76411.00;5052180;28;20021;-88
2023/04/07 02:15:34;;;;;;;11.13;5.82;;;;;;;-148.88;100.00;76404.91;5052011;28;20478;-88
2023/04/07 02:18:02;;;;;;;11.60;5.65;;;;;;;-148.88;100.00;76411.00;5051622;28;20033;-88
2023/04/07 02:20:29;;;;;;;10.88;5.18;;;;;;;-148.88;100.00;76413.03;5051590;28;20031;-87
2023/04/07 02:22:55;;;;;;;11.25;5.95;;;;;;;-148.88;100.00;76423.19;5051442;28;20111;-88
2023/04/07 02:25:29;;;;;;;13.45;5.70;;;;;;;-148.88;100.00;76425.25;5051977;28;20451;-88
2023/04/07 02:27:56;;;;;;;10.45;5.63;;;;;;;-148.88;100.00;76421.19;5052383;28;20029;-87
2023/04/07 02:30:22;;;;;;;10.20;5.95;;;;;;;-148.88;100.00;76431.34;5051572;28;20025;-87
2023/04/07 02:32:47;;;;;;;12.52;6.20;;;;;;;-148.88;100.00;76433.38;5051813;28;20021;-88
2023/04/07 02:35:15;;;;;;;11.52;6.28;;;;;;;-148.88;100.00;76439.47;5051505;28;20025;-88
2023/04/07 02:37:40;;;;;;;11.75;6.07;;;;;;;-148.88;100.00;76439.47;5051919;28;20029;-89
2023/04/07 02:40:06;;;;;;;11.80;5.93;;;;;;;-148.88;100.00;76447.59;5051561;28;20037;-88
2023/04/07 02:42:31;;;;;;;11.75;5.72;;;;;;;-148.88;100.00;76449.63;5052536;28;20055;-88
2023/04/07 02:44:57;;;;;;;10.77;5.78;;;;;;;-148.88;100.00;76451.66;5051367;28;20017;-88
2023/04/07 02:47:22;;;;;;;12.90;6.30;;;;;;;-148.88;100.00;76453.69;5051324;28;20486;-89
2023/04/07 02:49:48;;;;;;;12.75;5.88;;;;;;;-148.88;100.00;76457.75;5051664;28;20017;-88
2023/04/07 02:52:13;;;;;;;10.13;5.97;;;;;;;-148.88;100.00;76459.78;5051138;28;20098;-87
2023/04/07 02:54:38;;;;;;;11.00;5.45;;;;;;;-148.88;100.00;76459.78;5051326;28;20031;-88
2023/04/07 02:57:03;;;;;;;11.20;5.50;;;;;;;-148.88;100.00;76463.84;5051296;28;20021;-88
2023/04/07 02:59:29;;;;;;;12.18;5.60;;;;;;;-148.88;100.00;76465.88;5051212;28;20028;-87
2023/04/07 03:01:54;;;;;;;13.38;6.40;;;;;;;-148.88;100.00;76467.91;5051560;28;20029;-88
2023/04/07 03:04:20;;;;;;;13.15;6.75;;;;;;;-148.88;100.00;76465.88;5051366;28;20024;-88
2023/04/07 03:06:45;;;;;;;14.38;7.03;;;;;;;-148.88;100.00;76471.97;5051374;28;20067;-88
2023/04/07 03:09:11;;;;;;;14.57;6.35;;;;;;;-148.88;100.00;76471.97;5051454;28;20061;-85
2023/04/07 03:12:44;;;;;;;11.60;5.97;;;;;;;-148.88;100.00;76471.97;5099054;22;20374;-87
2023/04/07 03:15:40;;;;;;;;;;;;;;;;;;;;;
2023/04/07 03:18:54;;;;;;;13.98;7.30;;;;;;;-148.88;100.00;76480.09;4991049;28;20074;-88
2023/04/07 03:25:21;;;;;;;15.38;8.40;;;;;;;-148.88;100.00;76488.22;4962523;28;20429;-85
2023/04/07 03:28:44;;;;;;;13.68;7.30;;;;;;;-148.88;100.00;76488.22;4952895;28;20035;-86
2023/04/07 03:33:50;;;;;;;17.77;8.48;;;;;;;-148.88;100.00;76494.31;5045920;22;20445;-79
2023/04/07 03:36:17;;;;;;;18.83;8.65;;;;;;;-148.88;100.00;76496.34;5038613;28;20577;-79
2023/04/07 03:38:43;;;;;;;18.75;9.30;;;;;;;-148.88;100.00;76496.34;5037463;28;20026;-79
2023/04/07 03:41:08;;;;;;;17.63;9.00;;;;;;;-148.88;100.00;76500.41;5038673;28;20051;-78
2023/04/07 03:43:33;;;;;;;16.40;8.77;;;;;;;-148.88;100.00;76504.47;5037872;28;20036;-79
2023/04/07 03:45:59;;;;;;;20.15;9.70;;;;;;;-148.88;100.00;76504.47;5036370;28;20032;-78
2023/04/07 03:48:30;;;;;;;18.70;9.02;;;;;;;-148.88;100.00;76504.47;5037401;28;20033;-79
2023/04/07 03:50:56;;;;;;;20.13;8.98;;;;;;;-148.88;100.00;76508.53;5038111;28;20029;-79
2023/04/07 03:53:21;;;;;;;19.48;9.95;;;;;;;-148.88;100.00;76510.56;5036355;28;20028;-79
2023/04/07 03:55:47;;;;;;;19.35;8.88;;;;;;;-148.88;100.00;76510.56;5036758;28;20032;-79
2023/04/07 03:58:12;;;;;;;23.13;9.93;;;;;;;-148.88;100.00;76512.59;5036508;28;20025;-79
2023/04/07 04:00:38;;;;;;;20.60;9.48;;;;;;;-148.88;100.00;76510.56;5036192;28;20445;-79
2023/04/07 04:03:03;;;;;;;20.55;9.77;;;;;;;-148.88;100.00;76496.34;5036476;28;20023;-79
2023/04/07 04:05:29;;;;;;;21.83;10.75;;;;;;;-148.88;100.00;76494.31;5037876;28;20036;-79
2023/04/07 04:07:56;;;;;;;22.05;10.32;;;;;;;-148.88;100.00;76512.59;5037432;28;20368;-79
2023/04/07 04:10:21;;;;;;;23.83;11.73;;;;;;;-148.88;100.00;76512.59;5036849;28;20025;-79
2023/04/07 04:12:47;;;;;;;22.67;10.40;;;;;;;-148.88;100.00;76516.66;5043079;28;20028;-79
2023/04/07 04:15:14;;;;;;;21.83;10.23;;;;;;;-148.88;100.00;76522.75;5044383;28;20585;-79
2023/04/07 04:17:40;;;;;;;21.88;11.30;;;;;;;-148.88;100.00;76526.81;5037598;28;20390;-78
2023/04/07 04:20:06;;;;;;;21.83;10.30;;;;;;;-148.88;100.00;76532.91;5038552;28;20025;-79
2023/04/07 04:22:31;;;;;;;24.65;11.45;;;;;;;-148.88;100.00;76536.97;5038351;28;20021;-78
2023/04/07 04:24:58;;;;;;;24.63;11.50;;;;;;;-148.88;100.00;76532.91;5036422;28;20116;-79
2023/04/07 04:27:23;;;;;;;23.73;11.18;;;;;;;-148.88;100.00;76528.84;5036298;28;20495;-76
2023/04/07 04:29:48;;;;;;;24.00;12.07;;;;;;;-148.88;100.00;76541.03;5037326;28;20052;-79
2023/04/07 04:32:14;;;;;;;22.65;10.82;;;;;;;-148.88;100.00;76543.06;5037364;28;20083;-79
2023/04/07 04:34:41;;;;;;;24.38;11.50;;;;;;;-148.88;100.00;76547.13;5037488;28;20040;-79
2023/04/07 04:37:06;;;;;;;22.55;10.75;;;;;;;-148.88;100.00;76549.16;5036024;28;20037;-79
2023/04/07 04:39:31;;;;;;;25.00;11.55;;;;;;;-148.88;100.00;76551.19;5036627;28;20119;-79
2023/04/07 04:41:57;;;;;;;23.45;10.52;;;;;;;-148.88;100.00;76553.22;5035697;28;20478;-79
2023/04/07 04:44:22;;;;;;;20.50;10.90;;;;;;;-148.88;100.00;76557.28;5036050;28;20017;-80
2023/04/07 04:46:47;;;;;;;21.88;10.60;;;;;;;-148.88;100.00;76555.25;5035715;28;20025;-79
2023/04/07 04:49:14;;;;;;;26.77;12.63;;;;;;;-148.88;100.00;76557.28;5036007;28;20017;-79
2023/04/07 04:51:39;;;;;;;24.05;12.15;;;;;;;-148.88;100.00;76561.34;5037058;28;20075;-79
2023/04/07 04:54:05;;;;;;;20.33;11.32;;;;;;;-148.88;100.00;76561.34;5035675;28;20021;-78
2023/04/07 04:56:31;;;;;;;22.80;10.63;;;;;;;-148.88;100.00;76555.25;5036736;28;20033;-78
2023/04/07 04:58:56;;;;;;;27.35;12.25;;;;;;;-148.88;100.00;76559.31;5035347;28;20438;-78
2023/04/07 05:01:21;;;;;;;25.58;11.15;;;;;;;-148.88;100.00;76557.28;5036203;28;20033;-79
2023/04/07 05:03:47;;;;;;;25.73;11.25;;;;;;;-148.88;100.00;76553.22;5036825;28;20095;-78
2023/04/07 05:06:12;;;;;;;27.40;11.98;;;;;;;-148.88;100.00;76557.28;5035445;28;20021;-79
2023/04/07 05:08:37;;;;;;;24.23;11.68;;;;;;;-148.88;100.00;76553.22;5037202;28;20108;-79
2023/04/07 05:11:03;;;;;;;26.88;11.20;;;;;;;-148.88;100.00;76563.38;5035751;28;20489;-79
2023/04/07 05:13:29;;;;;;;26.40;11.15;;;;;;;-148.88;100.00;76553.22;5035432;28;20371;-78
2023/04/07 05:15:55;;;;;;;25.77;11.65;;;;;;;-148.88;100.00;76555.25;5037215;28;20029;-79
2023/04/07 05:18:20;;;;;;;21.80;9.90;;;;;;;-148.88;100.00;76549.16;5037346;28;20052;-79
2023/04/07 05:20:47;;;;;;;22.60;11.25;;;;;;;-148.88;100.00;76557.28;5035804;28;20021;-79
2023/04/07 05:23:13;;;;;;;22.15;10.15;;;;;;;-148.88;100.00;76557.28;5036610;28;20104;-79
2023/04/07 05:25:38;;;;;;;21.85;9.98;;;;;;;-148.88;100.00;76559.31;5035782;28;20060;-78
2023/04/07 05:28:03;;;;;;;22.98;10.50;;;;;;;-148.88;100.00;76559.31;5034923;28;20470;-78
2023/04/07 05:30:31;;;;;;;24.40;11.90;;;;;;;-148.88;100.00;76561.34;5035070;28;20075;-79
2023/04/07 05:32:57;;;;;;;25.63;10.57;;;;;;;-148.88;100.00;76557.28;5035107;28;20032;-79
2023/04/07 05:35:22;;;;;;;27.50;12.32;;;;;;;-148.88;100.00;76557.28;5034798;28;20124;-78
2023/04/07 05:37:48;;;;;;;26.05;12.38;;;;;;;-148.88;100.00;76557.28;5036635;28;20048;-78
2023/04/07 05:40:14;;;;;;;24.40;11.63;;;;;;;-148.88;100.00;76555.25;5035692;28;20030;-79
2023/04/07 05:42:39;;;;;;;23.80;10.98;;;;;;;-148.88;100.00;76561.34;5034964;28;20075;-79
2023/04/07 05:45:05;;;;;;;28.65;11.90;;;;;;;-148.88;100.00;76553.22;5036607;28;20033;-79
2023/04/07 05:47:31;;;;;;;27.42;12.68;;;;;;;-148.88;100.00;76553.22;5035408;28;20048;-79
2023/04/07 05:49:57;;;;;;;27.67;12.30;;;;;;;-148.88;100.00;76549.16;5035983;28;20017;-79
2023/04/07 05:52:22;;;;;;;26.77;12.15;;;;;;;-148.88;100.00;76541.03;5035577;28;20048;-79
2023/04/07 05:54:48;;;;;;;23.25;11.63;;;;;;;-148.88;100.00;76543.06;5035017;28;20501;-79
2023/04/07 05:57:13;;;;;;;27.40;11.52;;;;;;;-148.88;100.00;76536.97;5034736;28;20017;-79
2023/04/07 05:59:38;;;;;;;23.83;11.75;;;;;;;-148.88;100.00;76541.03;5035154;28;20033;-79
2023/04/07 06:02:04;;;;;;;24.98;10.77;;;;;;;-148.88;100.00;76530.88;5034811;28;20021;-79
2023/04/07 06:04:29;;;;;;;24.77;11.38;;;;;;;-148.88;100.00;76534.94;5034879;28;20071;-79
2023/04/07 06:06:55;;;;;;;23.00;10.68;;;;;;;-148.88;100.00;76530.88;5034881;28;20032;-79
2023/04/07 06:09:21;;;;;;;24.45;11.45;;;;;;;-148.88;100.00;76526.81;5034719;28;20044;-78
2023/04/07 06:11:47;;;;;;;21.80;10.55;;;;;;;-148.88;100.00;76524.78;5035020;28;20029;-78
2023/04/07 06:14:13;;;;;;;21.60;10.68;;;;;;;-148.88;100.00;76524.78;5036342;28;20033;-78
2023/04/07 06:16:38;;;;;;;21.40;10.07;;;;;;;-148.88;100.00;76530.88;5038025;28;20029;-79
2023/04/07 06:19:03;;;;;;;20.23;9.95;;;;;;;-148.88;100.00;76526.81;5037239;28;20044;-79
2023/04/07 06:21:29;;;;;;;19.77;9.52;;;;;;;-148.88;100.00;76526.81;5034929;28;20029;-79
2023/04/07 06:23:55;;;;;;;20.25;10.20;;;;;;;-148.88;100.00;76528.84;5034780;28;20112;-79
2023/04/07 06:26:20;;;;;;;18.83;9.40;;;;;;;-148.88;100.00;76524.78;5036336;28;20032;-79
2023/04/07 06:28:46;;;;;;;19.20;10.25;;;;;;;-148.88;100.00;76524.78;5036464;28;20029;-79
2023/04/07 06:31:11;;;;;;;20.48;9.80;;;;;;;-148.88;100.00;76524.78;5040994;28;20028;-79
2023/04/07 06:33:37;;;;;;;17.02;8.10;;;;;;;-148.88;100.00;76522.75;5038793;28;20037;-79
2023/04/07 06:36:02;;;;;;;18.92;8.00;;;;;;;-148.88;100.00;76524.78;5040245;28;20479;-78
2023/04/07 06:38:30;;;;;;;19.27;8.32;;;;;;;-148.88;100.00;76514.63;5037824;28;20437;-78
2023/04/07 06:40:55;;;;;;;17.13;8.38;;;;;;;-148.88;100.00;76510.56;5038469;28;20036;-79
2023/04/07 06:43:21;;;;;;;17.88;8.25;;;;;;;-148.88;100.00;76504.47;5038451;28;20017;-78
2023/04/07 06:45:46;;;;;;;21.27;8.57;;;;;;;-148.88;100.00;76500.41;5038592;28;20025;-78
2023/04/07 06:48:11;;;;;;;15.32;7.60;;;;;;;-148.88;100.00;76496.34;5038835;28;20022;-78
2023/04/07 06:50:37;;;;;;;17.55;8.52;;;;;;;-148.88;100.00;76494.31;5038895;28;20033;-79
2023/04/07 06:53:03;;;;;;;15.43;7.47;;;;;;;-148.88;100.00;76486.19;5039910;28;20096;-79
2023/04/07 06:55:28;;;;;;;15.00;8.05;;;;;;;-148.88;100.00;76490.25;5039055;28;20405;-80
2023/04/07 06:57:54;;;;;;;15.70;7.75;;;;;;;-148.88;100.00;76484.16;5039603;28;20514;-79
2023/04/07 07:00:21;;;;;;;16.77;7.47;;;;;;;-148.88;100.00;76480.09;5039302;28;20413;-79
2023/04/07 07:02:47;;;;;;;15.10;7.30;;;;;;;-148.88;100.00;76471.97;5040481;28;20462;-79
2023/04/07 07:05:12;;;;;;;14.68;7.35;;;;;;;-148.88;100.00;76463.84;5040168;28;20090;-79
2023/04/07 07:07:38;;;;;;;13.55;6.63;;;;;;;-148.88;100.00;76457.75;5043920;28;20398;-79
2023/04/07 07:10:03;;;;;;;15.70;7.55;;;;;;;-148.88;100.00;76455.72;5044681;28;20048;-79
2023/04/07 07:12:29;;;;;;;15.20;7.28;;;;;;;-148.88;100.00;76455.72;5042896;28;20029;-79
2023/04/07 07:14:54;;;;;;;16.77;7.10;;;;;;;-148.88;100.00;76451.66;5042748;28;20022;-79
2023/04/07 07:17:19;;;;;;;12.63;6.93;;;;;;;-148.88;100.00;76443.53;5045153;28;20060;-78
2023/04/07 07:19:45;;;;;;;12.55;6.55;;;;;;;-148.88;100.00;76439.47;5045453;28;20021;-78
2023/04/07 07:22:10;;;;;;;11.68;6.18;;;;;;;-148.88;100.00;76443.53;5042829;28;20037;-77
2023/04/07 07:24:35;;;;;;;13.00;7.25;;;;;;;-148.88;100.00;76431.34;5041404;28;20026;-78
2023/04/07 07:27:02;;;;;;;14.00;6.22;;;;;;;-148.88;100.00;76429.31;5041387;28;20029;-78
2023/04/07 07:29:27;;;;;;;11.02;5.90;;;;;;;-148.88;100.00;76425.25;5041692;28;20482;-78
2023/04/07 07:31:52;;;;;;;10.90;5.50;;;;;;;-148.88;100.00;76423.19;5043197;28;20033;-79
2023/04/07 07:34:18;;;;;;;11.43;5.75;;;;;;;-148.88;100.00;76411.00;5042093;28;20021;-79
2023/04/07 07:36:43;;;;;;;12.27;6.60;;;;;;;-148.88;100.00;76402.88;5041850;28;20102;-79
2023/04/07 07:39:09;;;;;;;13.80;6.32;;;;;;;-148.88;100.00;76402.88;5043843;28;20040;-78
2023/04/07 07:41:34;;;;;;;12.65;6.70;;;;;;;-148.88;100.00;76404.91;5042704;28;20029;-79
2023/04/07 07:44:00;;;;;;;11.05;6.00;;;;;;;-148.88;100.00;76390.69;5043656;28;20025;-79
2023/04/07 07:46:26;;;;;;;13.13;6.30;;;;;;;-148.88;100.00;76376.47;5041659;28;20022;-79
2023/04/07 07:48:51;;;;;;;10.45;5.82;;;;;;;-148.88;100.00;76368.34;5041746;28;20116;-77
2023/04/07 07:51:19;;;;;;;10.45;5.57;;;;;;;-148.88;100.00;76356.16;5043138;28;20053;-79
2023/04/07 07:53:45;;;;;;;11.05;5.43;;;;;;;-148.88;99.82;76360.22;5041218;28;20094;-79
2023/04/07 07:56:10;;;;;;;14.07;5.45;;;;;;;-148.88;100.00;76364.28;5041916;28;20045;-78
2023/04/07 07:58:36;;;;;;;11.85;6.10;;;;;;;-148.88;100.00;76362.25;5041254;28;20068;-78
2023/04/07 08:01:01;;;;;;;9.48;4.90;;;;;;;-148.88;100.00;76350.06;5041955;28;20021;-78
2023/04/07 08:03:26;;;;;;;11.40;4.82;;;;;;;-148.88;99.35;76350.06;5039685;28;20020;-78
2023/04/07 08:05:52;;;;;;;9.02;5.18;;;;;;;-148.88;98.03;76356.16;5039757;28;20027;-78
2023/04/07 08:08:17;;;;;;;9.10;4.63;;;;;;;-148.88;100.00;76341.94;5040556;28;20075;-78
2023/04/07 08:10:42;;;;;;;10.27;5.00;;;;;;;-148.88;99.38;76337.88;5041202;28;20029;-79
2023/04/07 08:13:08;;;;;;;8.68;4.75;;;;;;;-148.88;99.45;76331.78;5042085;28;20409;-79
2023/04/07 08:15:33;;;;;;;7.57;4.20;;;;;;;-148.88;98.48;76325.69;5040718;28;20029;-79
2023/04/07 08:17:59;;;;;;;6.75;4.22;;;;;;;-148.88;97.90;76313.50;5040768;28;20018;-78
2023/04/07 08:20:26;;;;;;;9.05;5.10;;;;;;;-148.88;97.37;76309.44;5040890;28;20025;-79
2023/04/07 08:22:51;;;;;;;8.55;6.50;;;;;;;-148.88;97.61;76293.19;5039773;28;20443;-79
2023/04/07 08:25:16;;;;;;;8.15;4.63;;;;;;;-148.88;96.39;76295.22;5042110;28;20025;-79
2023/04/07 08:27:42;;;;;;;6.93;4.25;;;;;;;-148.88;93.52;76289.13;5042344;28;20032;-79
2023/04/07 08:30:08;;;;;;;7.13;4.00;;;;;;;-148.88;95.30;76285.06;5041972;28;20475;-79
2023/04/07 08:32:39;;;;;;;7.65;4.18;;;;;;;-148.88;94.70;76274.91;5041882;28;20079;-78
2023/04/07 08:35:05;;;;;;;7.30;4.20;;;;;;;-148.88;93.53;76295.22;5039235;28;20047;-78
2023/04/07 08:37:31;;;;;;;5.95;3.20;;;;;;;-148.88;92.07;76293.19;5040618;28;20065;-77
2023/04/07 08:39:57;;;;;;;8.23;4.05;;;;;;;-148.88;92.94;76289.13;5038997;28;20021;-78
2023/04/07 08:42:26;;;;;;;7.03;5.65;;;;;;;-148.88;93.96;76264.75;5039790;28;20025;-77
2023/04/07 08:45:01;;;;;;;8.15;4.05;;;;;;;-148.88;91.73;76256.63;5039378;28;20021;-77
2023/04/07 08:47:27;;;;;;;8.82;3.90;;;;;;;-148.88;90.94;76246.47;5033456;28;20036;-77
2023/04/07 08:49:57;;;;;;;7.50;6.18;;;;;;;-148.88;91.05;76220.06;5033488;28;20021;-78
2023/04/07 08:52:31;;;;;;;7.85;4.05;;;;;;;-148.88;89.59;76207.88;5035199;28;20063;-77
2023/04/07 08:54:59;;;;;;;7.90;4.35;;;;;;;-148.88;88.29;76191.63;5033422;28;20029;-77
2023/04/07 08:57:24;;;;;;;7.95;4.15;;;;;;;-148.88;86.08;76171.31;5034558;28;20041;-77
2023/04/07 08:59:50;;;;;;;9.15;4.35;;;;;;;-148.88;85.63;76171.31;5033225;28;20061;-77
2023/04/07 09:02:16;;;;;;;6.60;4.07;;;;;;;-148.88;85.77;76167.25;5034718;28;20057;-77
2023/04/07 09:04:43;;;;;;;7.20;5.88;;;;;;;-148.88;83.30;76211.94;5033247;28;20458;-77
2023/04/07 09:07:08;;;;;;;8.10;3.78;;;;;;;-148.88;83.22;76207.88;5034291;28;20112;-77
2023/04/07 09:09:34;;;;;;;8.65;4.63;;;;;;;-148.88;84.51;76171.31;5033941;28;20059;-77
2023/04/07 09:11:59;;;;;;;8.02;6.15;;;;;;;-148.88;83.74;76159.13;5038304;28;20021;-78
2023/04/07 09:14:25;;;;;;;7.90;6.30;;;;;;;-148.88;83.07;76155.06;5039757;28;20049;-77
2023/04/07 09:16:50;;;;;;;7.82;6.22;;;;;;;-148.88;84.02;76151.00;5038938;28;20022;-77
2023/04/07 09:19:15;;;;;;;7.45;4.55;;;;;;;-148.88;81.43;76165.22;5037824;28;20021;-78
2023/04/07 09:21:48;;;;;;;7.45;6.30;;;;;;;-148.88;82.02;76161.16;5035298;28;20498;-78
2023/04/07 09:24:24;;;;;;;8.43;4.63;;;;;;;-148.88;81.62;76167.25;5034579;28;20111;-78
2023/04/07 09:26:50;;;;;;;7.25;5.88;;;;;;;-148.88;80.34;76132.72;5037385;28;20278;-78
2023/04/07 09:29:22;;;;;;;7.68;5.85;;;;;;;-148.88;81.49;76071.75;5036584;28;20022;-78
2023/04/07 09:31:49;;;;;;;7.20;5.70;;;;;;;-148.88;79.49;76004.72;5034847;28;20414;-78
2023/04/07 09:34:31;;;;;;;5.40;4.70;;;;;;;-148.88;75.55;76008.78;5036271;28;20033;-78
2023/04/07 09:36:57;;;;;;;6.13;4.95;;;;;;;-148.88;78.00;75980.34;5035673;28;20025;-78
2023/04/07 09:39:23;;;;;;;5.07;4.07;;;;;;;-148.88;75.77;75966.13;5035679;28;20552;-78
2023/04/07 09:41:48;;;;;;;6.05;4.38;;;;;;;-148.88;75.78;75960.03;5035579;28;20025;-78
2023/04/07 09:44:14;;;;;;;5.65;4.68;;;;;;;-148.88;75.65;75974.25;5035734;28;20017;-78
2023/04/07 09:46:52;;;;;;;6.45;5.05;;;;;;;-148.88;75.08;75964.09;5035754;28;20168;-78
2023/04/07 09:49:19;;;;;;;6.07;5.20;;;;;;;-148.88;74.67;75988.47;5035530;28;20493;-78
2023/04/07 09:51:52;;;;;;;5.72;4.60;;;;;;;-148.88;75.38;76020.97;5036371;28;20605;-78
2023/04/07 09:54:33;;;;;;;5.97;4.85;;;;;;;-148.88;76.64;76020.97;5040377;28;20026;-78
2023/04/07 09:57:00;;;;;;;5.72;4.82;;;;;;;-148.88;77.30;76025.03;5034357;28;20375;-78
2023/04/07 09:59:27;;;;;;;7.05;5.85;;;;;;;-148.88;75.30;75988.47;5035434;28;20026;-78
2023/04/07 10:01:52;;;;;;;8.45;5.70;;;;;;;-148.88;76.01;76012.84;5035016;28;20030;-78
2023/04/07 10:04:18;;;;;;;5.80;5.20;;;;;;;-148.88;73.84;75933.63;5035278;28;20128;-78
2023/04/07 10:06:44;;;;;;;7.18;5.82;;;;;;;-148.88;69.01;75933.63;5035844;28;20026;-78
2023/04/07 10:09:10;;;;;;;6.13;5.10;;;;;;;-148.88;67.01;75931.59;5034138;28;20386;-78
2023/04/07 10:11:36;;;;;;;6.55;5.57;;;;;;;-148.88;69.58;75890.97;5034024;28;20025;-78
2023/04/07 10:14:02;;;;;;;7.60;5.60;;;;;;;-148.88;67.04;75911.28;5035377;28;20100;-77
2023/04/07 10:16:28;;;;;;;8.05;6.20;;;;;;;-148.88;67.94;75972.22;5036720;28;20470;-78
2023/04/07 10:18:56;;;;;;;7.50;6.22;;;;;;;-148.88;66.61;76004.72;5036378;28;20586;-78
2023/04/07 10:21:22;;;;;;;8.00;6.53;;;;;;;-148.88;68.20;75980.34;5035715;28;20040;-78
2023/04/07 10:24:36;;;;;;;9.70;6.50;;;;;;;-148.88;66.94;75943.78;5035600;28;20021;-78
2023/04/07 10:27:07;;;;;;;8.05;6.55;;;;;;;-148.88;67.06;75870.66;5001423;28;20410;-77
2023/04/07 10:29:43;;;;;;;7.93;6.32;;;;;;;-148.88;66.31;75830.03;5037175;28;20079;-77
2023/04/07 10:32:09;;;;;;;7.32;6.32;;;;;;;-148.88;64.86;75817.84;5036320;28;20438;-78
2023/04/07 10:34:49;;;;;;;7.70;6.40;;;;;;;-148.88;65.68;75838.16;5065820;22;20399;-86
2023/04/07 10:37:19;;;;;;;7.93;6.93;;;;;;;-148.88;63.49;75801.59;5058275;28;20032;-85
2023/04/07 10:39:45;;;;;;;9.63;7.75;;;;;;;-148.88;61.16;75793.47;5059822;28;20036;-85
2023/04/07 10:42:38;;;;;;;8.85;7.22;;;;;;;-148.88;61.53;75799.56;5060652;28;20021;-86
2023/04/07 10:45:16;;;;;;;9.15;7.65;;;;;;;-148.88;57.96;75777.22;5062756;28;20131;-84
2023/04/07 10:47:56;;;;;;;9.02;8.07;;;;;;;-148.88;55.38;75769.09;5061481;28;20130;-85
2023/04/07 10:50:28;;;;;;;9.60;7.85;;;;;;;-148.88;56.85;75781.28;5061750;28;20036;-85
2023/04/07 10:53:11;;;;;;;9.55;8.00;;;;;;;-148.88;58.15;75795.50;5060118;28;20029;-86
2023/04/07 10:55:43;;;;;;;10.20;8.20;;;;;;;-148.88;56.37;75740.66;5060758;28;20032;-86
2023/04/07 10:58:24;;;;;;;10.55;8.32;;;;;;;-148.88;55.99;75760.97;5065492;28;20025;-86
2023/04/07 11:01:39;;;;;;;10.85;8.30;;;;;;;-148.88;55.36;75750.81;5063063;28;20033;-86
2023/04/07 11:04:22;;;;;;;11.88;8.63;;;;;;;-148.88;54.65;75769.09;5063190;28;20059;-86
2023/04/07 11:06:50;;;;;;;10.40;8.43;;;;;;;-148.88;52.39;75821.91;5063519;28;20029;-85
2023/04/07 11:09:20;;;;;;;10.95;8.85;;;;;;;-148.88;52.84;75736.59;5060838;28;20029;-84
2023/04/07 11:11:47;;;;;;;10.98;8.98;;;;;;;-148.88;50.40;75785.34;5061785;28;20086;-87
2023/04/07 11:14:36;;;;;;;11.30;9.23;;;;;;;-148.88;53.49;75748.78;5057533;28;20064;-86
2023/04/07 11:17:16;;;;;;;9.98;8.40;;;;;;;-148.88;52.97;75775.19;5058363;28;20055;-86
2023/04/07 11:20:10;;;;;;;;;;;;;;;;;;;;;
2023/04/07 11:23:17;;;;;;;;;;;;;;;;;;;;;